Terminal Aerodrome Forecast
Issued by NWS Sioux Falls, SD

Home | Current Version | Previous Version | Graphics & Text | Print | Product List | Glossary Off
Versions: 1 2 3 4 5 6 7 8 9 10 11 12 13 14 15 16 17 18 19

799
FTUS43 KFSD 280532
TAFHON
TAF
KHON 280532Z 2806/2906 04009KT 6SM -RA OVC015
     FM280900 03009KT 4SM -RA OVC009
     FM281300 03009KT P6SM -RA OVC012
     FM281800 02011KT P6SM OVC020=

USA.gov is the U.S. government's official web portal to all federal, state and local government web resources and services.